sensor_id;sensor_type;location;lat;lon;timestamp;pressure;altitude;pressure_sealevel;temperature;humidity
72587;BME280;60621;49.576;11.024;2022-12-18T00:00:05;99627.16;;;-8.85;59.95
72587;BME280;60621;49.576;11.024;2022-12-18T00:01:17;99638.97;;;-8.91;59.95
72587;BME280;60621;49.576;11.024;2022-12-18T00:02:19;99636.19;;;-8.89;59.93
72587;BME280;60621;49.576;11.024;2022-12-18T00:03:21;99637.59;;;-8.80;60.36
72587;BME280;60621;49.576;11.024;2022-12-18T00:04:24;99637.78;;;-8.82;60.31
72587;BME280;60621;49.576;11.024;2022-12-18T00:05:26;99636.59;;;-8.92;60.35
72587;BME280;60621;49.576;11.024;2022-12-18T00:06:29;99646.22;;;-8.94;60.23
72587;BME280;60621;49.576;11.024;2022-12-18T00:07:30;99648.19;;;-8.90;60.22
72587;BME280;60621;49.576;11.024;2022-12-18T00:08:32;99647.25;;;-8.82;60.28
72587;BME280;60621;49.576;11.024;2022-12-18T00:09:33;99635.63;;;-8.78;60.23
72587;BME280;60621;49.576;11.024;2022-12-18T00:10:40;99637.00;;;-8.75;60.35
72587;BME280;60621;49.576;11.024;2022-12-18T00:11:42;99636.63;;;-8.72;60.14
72587;BME280;60621;49.576;11.024;2022-12-18T00:12:47;99630.13;;;-8.82;59.98
72587;BME280;60621;49.576;11.024;2022-12-18T00:13:49;99634.63;;;-8.90;60.18
72587;BME280;60621;49.576;11.024;2022-12-18T00:14:50;99645.25;;;-8.93;59.79
72587;BME280;60621;49.576;11.024;2022-12-18T00:15:52;99637.19;;;-8.90;59.99
72587;BME280;60621;49.576;11.024;2022-12-18T00:16:56;99633.66;;;-8.83;59.76
72587;BME280;60621;49.576;11.024;2022-12-18T00:18:01;99631.50;;;-8.86;59.62
72587;BME280;60621;49.576;11.024;2022-12-18T00:19:04;99638.34;;;-8.93;59.48
72587;BME280;60621;49.576;11.024;2022-12-18T00:20:07;99641.09;;;-8.88;59.65
72587;BME280;60621;49.576;11.024;2022-12-18T00:21:10;99627.56;;;-8.82;59.22
72587;BME280;60621;49.576;11.024;2022-12-18T00:22:11;99630.31;;;-8.77;59.24
72587;BME280;60621;49.576;11.024;2022-12-18T00:23:13;99623.84;;;-8.72;59.34
72587;BME280;60621;49.576;11.024;2022-12-18T00:24:14;99624.78;;;-8.73;58.68
72587;BME280;60621;49.576;11.024;2022-12-18T00:25:16;99627.16;;;-8.79;59.02
72587;BME280;60621;49.576;11.024;2022-12-18T00:26:20;99629.13;;;-8.74;58.99
72587;BME280;60621;49.576;11.024;2022-12-18T00:27:23;99627.97;;;-8.71;59.41
72587;BME280;60621;49.576;11.024;2022-12-18T00:28:24;99630.31;;;-8.70;58.91
72587;BME280;60621;49.576;11.024;2022-12-18T00:29:26;99625.03;;;-8.68;58.65
72587;BME280;60621;49.576;11.024;2022-12-18T00:30:27;99626.38;;;-8.72;58.27
72587;BME280;60621;49.576;11.024;2022-12-18T00:31:29;99632.66;;;-8.75;58.62
72587;BME280;60621;49.576;11.024;2022-12-18T00:32:30;99629.91;;;-8.73;58.54
72587;BME280;60621;49.576;11.024;2022-12-18T00:33:34;99631.31;;;-8.78;57.63
72587;BME280;60621;49.576;11.024;2022-12-18T00:34:36;99626.38;;;-8.86;58.69
72587;BME280;60621;49.576;11.024;2022-12-18T00:35:38;99635.22;;;-8.95;58.84
72587;BME280;60621;49.576;11.024;2022-12-18T00:36:40;99639.13;;;-8.99;59.12
72587;BME280;60621;49.576;11.024;2022-12-18T00:37:42;99636.56;;;-8.99;58.72
72587;BME280;60621;49.576;11.024;2022-12-18T00:38:44;99634.19;;;-9.07;58.44
72587;BME280;60621;49.576;11.024;2022-12-18T00:39:47;99643.25;;;-9.11;58.76
72587;BME280;60621;49.576;11.024;2022-12-18T00:40:49;99634.00;;;-9.12;58.76
72587;BME280;60621;49.576;11.024;2022-12-18T00:41:51;99639.50;;;-9.09;59.36
72587;BME280;60621;49.576;11.024;2022-12-18T00:43:11;99642.84;;;-9.15;58.67
72587;BME280;60621;49.576;11.024;2022-12-18T00:44:15;99634.41;;;-9.09;59.02
72587;BME280;60621;49.576;11.024;2022-12-18T00:45:17;99635.59;;;-8.98;58.86
72587;BME280;60621;49.576;11.024;2022-12-18T00:46:18;99629.53;;;-8.97;58.37
72587;BME280;60621;49.576;11.024;2022-12-18T00:47:20;99633.44;;;-8.94;57.92
72587;BME280;60621;49.576;11.024;2022-12-18T00:48:22;99632.06;;;-8.90;57.83
72587;BME280;60621;49.576;11.024;2022-12-18T00:49:23;99624.00;;;-8.94;57.91
72587;BME280;60621;49.576;11.024;2022-12-18T00:50:25;99629.28;;;-9.02;57.94
72587;BME280;60621;49.576;11.024;2022-12-18T00:51:27;99631.25;;;-9.11;58.42
72587;BME280;60621;49.576;11.024;2022-12-18T00:52:28;99633.03;;;-9.11;58.36
72587;BME280;60621;49.576;11.024;2022-12-18T00:53:30;99631.63;;;-9.14;59.05
72587;BME280;60621;49.576;11.024;2022-12-18T00:54:31;99624.53;;;-9.18;58.87
72587;BME280;60621;49.576;11.024;2022-12-18T00:55:33;99625.34;;;-9.18;59.14
72587;BME280;60621;49.576;11.024;2022-12-18T00:56:37;99611.97;;;-9.13;58.73
72587;BME280;60621;49.576;11.024;2022-12-18T00:57:51;99609.63;;;-9.08;58.14
72587;BME280;60621;49.576;11.024;2022-12-18T00:58:53;99613.53;;;-9.12;57.94
72587;BME280;60621;49.576;11.024;2022-12-18T00:59:54;99610.97;;;-9.12;58.13
72587;BME280;60621;49.576;11.024;2022-12-18T01:00:56;99625.13;;;-9.16;58.14
72587;BME280;60621;49.576;11.024;2022-12-18T01:01:58;99622.41;;;-9.15;58.14
72587;BME280;60621;49.576;11.024;2022-12-18T01:03:00;99626.31;;;-9.25;58.31
72587;BME280;60621;49.576;11.024;2022-12-18T01:04:02;99627.69;;;-9.30;58.96
72587;BME280;60621;49.576;11.024;2022-12-18T01:05:04;99625.88;;;-9.36;58.75
72587;BME280;60621;49.576;11.024;2022-12-18T01:06:08;99635.50;;;-9.44;59.54
72587;BME280;60621;49.576;11.024;2022-12-18T01:07:09;99637.06;;;-9.37;58.74
72587;BME280;60621;49.576;11.024;2022-12-18T01:08:11;99635.72;;;-9.39;59.12
72587;BME280;60621;49.576;11.024;2022-12-18T01:09:13;99645.50;;;-9.43;59.24
72587;BME280;60621;49.576;11.024;2022-12-18T01:10:15;99645.50;;;-9.43;59.30
72587;BME280;60621;49.576;11.024;2022-12-18T01:11:18;99648.28;;;-9.44;59.62
72587;BME280;60621;49.576;11.024;2022-12-18T01:12:20;99647.69;;;-9.40;59.62
72587;BME280;60621;49.576;11.024;2022-12-18T01:13:22;99655.16;;;-9.38;59.19
72587;BME280;60621;49.576;11.024;2022-12-18T01:14:23;99659.34;;;-9.24;59.33
72587;BME280;60621;49.576;11.024;2022-12-18T01:15:25;99656.53;;;-9.42;58.45
72587;BME280;60621;49.576;11.024;2022-12-18T01:16:27;99665.97;;;-9.43;58.30
72587;BME280;60621;49.576;11.024;2022-12-18T01:17:28;99669.31;;;-9.36;58.45
72587;BME280;60621;49.576;11.024;2022-12-18T01:18:30;99667.09;;;-9.52;58.63
72587;BME280;60621;49.576;11.024;2022-12-18T01:19:32;99661.22;;;-9.46;58.48
72587;BME280;60621;49.576;11.024;2022-12-18T01:20:33;99661.63;;;-9.42;58.41
72587;BME280;60621;49.576;11.024;2022-12-18T01:21:35;99673.25;;;-9.40;58.32
72587;BME280;60621;49.576;11.024;2022-12-18T01:22:36;99663.19;;;-9.41;59.20
72587;BME280;60621;49.576;11.024;2022-12-18T01:23:38;99665.38;;;-9.38;58.31
72587;BME280;60621;49.576;11.024;2022-12-18T01:24:40;99672.84;;;-9.37;58.56
72587;BME280;60621;49.576;11.024;2022-12-18T01:25:42;99666.59;;;-9.34;58.58
72587;BME280;60621;49.576;11.024;2022-12-18T01:26:43;99666.97;;;-9.31;57.73
72587;BME280;60621;49.576;11.024;2022-12-18T01:27:45;99669.34;;;-9.29;58.29
72587;BME280;60621;49.576;11.024;2022-12-18T01:28:46;99664.81;;;-9.27;58.03
72587;BME280;60621;49.576;11.024;2022-12-18T01:29:49;99668.94;;;-9.26;58.22
72587;BME280;60621;49.576;11.024;2022-12-18T01:30:51;99670.13;;;-9.29;58.21
72587;BME280;60621;49.576;11.024;2022-12-18T01:31:55;99667.78;;;-9.30;58.04
72587;BME280;60621;49.576;11.024;2022-12-18T01:32:56;99672.66;;;-9.35;58.30
72587;BME280;60621;49.576;11.024;2022-12-18T01:34:04;99675.34;;;-9.50;58.88
72587;BME280;60621;49.576;11.024;2022-12-18T01:35:06;99675.41;;;-9.43;58.91
72587;BME280;60621;49.576;11.024;2022-12-18T01:36:14;99676.81;;;-9.34;58.28
72587;BME280;60621;49.576;11.024;2022-12-18T01:37:16;99675.81;;;-9.40;57.84
72587;BME280;60621;49.576;11.024;2022-12-18T01:38:17;99682.84;;;-9.48;58.13
72587;BME280;60621;49.576;11.024;2022-12-18T01:39:19;99680.84;;;-9.53;58.39
72587;BME280;60621;49.576;11.024;2022-12-18T01:40:21;99684.75;;;-9.57;59.23
72587;BME280;60621;49.576;11.024;2022-12-18T01:41:26;99687.16;;;-9.49;58.43
72587;BME280;60621;49.576;11.024;2022-12-18T01:42:28;99685.56;;;-9.50;58.34
72587;BME280;60621;49.576;11.024;2022-12-18T01:43:51;99690.69;;;-9.50;58.43
72587;BME280;60621;49.576;11.024;2022-12-18T01:46:07;99681.22;;;-9.63;58.44
72587;BME280;60621;49.576;11.024;2022-12-18T01:47:34;99687.09;;;-9.62;59.27
72587;BME280;60621;49.576;11.024;2022-12-18T01:48:34;99686.75;;;-9.52;58.41
72587;BME280;60621;49.576;11.024;2022-12-18T01:49:35;99681.06;;;-9.48;58.50
72587;BME280;60621;49.576;11.024;2022-12-18T01:50:41;99686.75;;;-9.52;58.28
72587;BME280;60621;49.576;11.024;2022-12-18T01:51:44;99688.97;;;-9.43;58.43
72587;BME280;60621;49.576;11.024;2022-12-18T01:54:00;99689.75;;;-9.36;57.41
72587;BME280;60621;49.576;11.024;2022-12-18T01:55:03;99685.00;;;-9.45;57.26
72587;BME280;60621;49.576;11.024;2022-12-18T01:56:07;99684.78;;;-9.50;56.86
72587;BME280;60621;49.576;11.024;2022-12-18T01:57:10;99683.22;;;-9.51;57.17
72587;BME280;60621;49.576;11.024;2022-12-18T01:58:12;99679.84;;;-9.59;57.20
72587;BME280;60621;49.576;11.024;2022-12-18T01:59:13;99675.53;;;-9.58;57.44
72587;BME280;60621;49.576;11.024;2022-12-18T02:00:18;99691.22;;;-9.61;58.02
72587;BME280;60621;49.576;11.024;2022-12-18T02:01:24;99688.22;;;-9.71;57.93
72587;BME280;60621;49.576;11.024;2022-12-18T02:02:28;99689.78;;;-9.77;58.88
72587;BME280;60621;49.576;11.024;2022-12-18T02:03:30;99694.31;;;-9.72;58.58
72587;BME280;60621;49.576;11.024;2022-12-18T02:04:31;99682.69;;;-9.75;58.93
72587;BME280;60621;49.576;11.024;2022-12-18T02:06:56;99683.75;;;-9.63;57.97
72587;BME280;60621;49.576;11.024;2022-12-18T02:09:24;99693.22;;;-9.57;57.90
72587;BME280;60621;49.576;11.024;2022-12-18T02:12:05;99686.88;;;-9.67;58.79
72587;BME280;60621;49.576;11.024;2022-12-18T02:13:19;99694.53;;;-9.67;58.35
72587;BME280;60621;49.576;11.024;2022-12-18T02:14:41;99688.81;;;-9.69;58.82
72587;BME280;60621;49.576;11.024;2022-12-18T02:15:54;99691.38;;;-9.69;58.74
72587;BME280;60621;49.576;11.024;2022-12-18T02:17:10;99693.19;;;-9.63;58.22
72587;BME280;60621;49.576;11.024;2022-12-18T02:18:19;99686.69;;;-9.59;58.17
72587;BME280;60621;49.576;11.024;2022-12-18T02:19:48;99691.25;;;-9.55;58.14
72587;BME280;60621;49.576;11.024;2022-12-18T02:21:01;99692.84;;;-9.53;57.53
72587;BME280;60621;49.576;11.024;2022-12-18T02:22:24;99694.78;;;-9.56;57.58
72587;BME280;60621;49.576;11.024;2022-12-18T02:26:05;99683.34;;;-9.66;58.18
72587;BME280;60621;49.576;11.024;2022-12-18T02:27:09;99679.44;;;-9.62;57.99
72587;BME280;60621;49.576;11.024;2022-12-18T02:28:15;99674.47;;;-9.70;57.97
72587;BME280;60621;49.576;11.024;2022-12-18T02:29:48;99673.69;;;-9.71;57.76
72587;BME280;60621;49.576;11.024;2022-12-18T02:30:48;99673.72;;;-9.64;57.92
72587;BME280;60621;49.576;11.024;2022-12-18T02:31:54;99676.25;;;-9.64;57.75
72587;BME280;60621;49.576;11.024;2022-12-18T02:32:57;99675.25;;;-9.76;58.53
72587;BME280;60621;49.576;11.024;2022-12-18T02:34:01;99683.63;;;-9.83;58.03
72587;BME280;60621;49.576;11.024;2022-12-18T02:35:06;99684.78;;;-9.92;59.16
72587;BME280;60621;49.576;11.024;2022-12-18T02:36:09;99693.00;;;-9.96;58.60
72587;BME280;60621;49.576;11.024;2022-12-18T02:37:15;99693.91;;;-10.04;59.58
72587;BME280;60621;49.576;11.024;2022-12-18T02:38:17;99697.25;;;-10.03;60.88
72587;BME280;60621;49.576;11.024;2022-12-18T02:39:21;99685.50;;;-9.98;61.19
72587;BME280;60621;49.576;11.024;2022-12-18T02:40:25;99691.03;;;-9.94;60.65
72587;BME280;60621;49.576;11.024;2022-12-18T02:41:27;99690.63;;;-9.98;61.01
72587;BME280;60621;49.576;11.024;2022-12-18T02:42:29;99695.38;;;-9.88;59.76
72587;BME280;60621;49.576;11.024;2022-12-18T02:43:31;99699.28;;;-9.92;60.11
72587;BME280;60621;49.576;11.024;2022-12-18T02:44:34;99706.16;;;-9.93;62.01
72587;BME280;60621;49.576;11.024;2022-12-18T02:45:52;99711.34;;;-9.80;60.47
72587;BME280;60621;49.576;11.024;2022-12-18T02:46:55;99704.06;;;-9.83;60.45
72587;BME280;60621;49.576;11.024;2022-12-18T02:47:56;99711.97;;;-9.77;60.63
72587;BME280;60621;49.576;11.024;2022-12-18T02:49:06;99709.22;;;-9.76;61.44
72587;BME280;60621;49.576;11.024;2022-12-18T02:50:22;99712.88;;;-9.92;62.47
72587;BME280;60621;49.576;11.024;2022-12-18T02:51:40;99717.78;;;-9.90;63.08
72587;BME280;60621;49.576;11.024;2022-12-18T02:54:10;99717.56;;;-9.95;64.74
72587;BME280;60621;49.576;11.024;2022-12-18T02:56:55;99723.00;;;-9.70;64.71
72587;BME280;60621;49.576;11.024;2022-12-18T02:58:14;99723.84;;;-9.63;65.39
72587;BME280;60621;49.576;11.024;2022-12-18T02:59:21;99723.75;;;-9.76;65.88
72587;BME280;60621;49.576;11.024;2022-12-18T03:00:37;99727.34;;;-9.64;65.48
72587;BME280;60621;49.576;11.024;2022-12-18T03:01:51;99721.50;;;-9.58;65.58
72587;BME280;60621;49.576;11.024;2022-12-18T03:03:05;99726.22;;;-9.55;66.06
72587;BME280;60621;49.576;11.024;2022-12-18T03:04:38;99725.28;;;-9.47;66.08
72587;BME280;60621;49.576;11.024;2022-12-18T03:06:06;99717.66;;;-9.41;66.12
72587;BME280;60621;49.576;11.024;2022-12-18T03:07:16;99720.81;;;-9.39;65.80
72587;BME280;60621;49.576;11.024;2022-12-18T03:08:33;99716.34;;;-9.30;65.96
72587;BME280;60621;49.576;11.024;2022-12-18T03:09:42;99712.81;;;-9.22;66.46
72587;BME280;60621;49.576;11.024;2022-12-18T03:10:53;99706.75;;;-9.15;65.58
72587;BME280;60621;49.576;11.024;2022-12-18T03:12:02;99709.31;;;-9.08;65.38
72587;BME280;60621;49.576;11.024;2022-12-18T03:13:32;99699.50;;;-9.05;64.51
72587;BME280;60621;49.576;11.024;2022-12-18T03:14:37;99701.50;;;-9.00;63.46
72587;BME280;60621;49.576;11.024;2022-12-18T03:15:45;99695.00;;;-8.96;63.19
72587;BME280;60621;49.576;11.024;2022-12-18T03:16:52;99691.47;;;-8.95;62.79
72587;BME280;60621;49.576;11.024;2022-12-18T03:17:59;99697.56;;;-8.96;62.79
72587;BME280;60621;49.576;11.024;2022-12-18T03:19:10;99698.72;;;-8.98;62.41
72587;BME280;60621;49.576;11.024;2022-12-18T03:20:16;99698.31;;;-9.09;62.04
72587;BME280;60621;49.576;11.024;2022-12-18T03:21:22;99703.44;;;-9.09;61.78
72587;BME280;60621;49.576;11.024;2022-12-18T03:22:30;99704.22;;;-9.08;61.37
72587;BME280;60621;49.576;11.024;2022-12-18T03:23:40;99701.06;;;-9.10;61.21
72587;BME280;60621;49.576;11.024;2022-12-18T03:24:45;99700.47;;;-9.12;61.02
72587;BME280;60621;49.576;11.024;2022-12-18T03:25:49;99702.03;;;-9.18;60.95
72587;BME280;60621;49.576;11.024;2022-12-18T03:26:56;99700.03;;;-9.22;60.71
72587;BME280;60621;49.576;11.024;2022-12-18T03:28:01;99712.03;;;-9.16;60.34
72587;BME280;60621;49.576;11.024;2022-12-18T03:29:08;99707.13;;;-9.18;60.27
72587;BME280;60621;49.576;11.024;2022-12-18T03:30:12;99716.56;;;-9.18;60.21
72587;BME280;60621;49.576;11.024;2022-12-18T03:31:15;99714.19;;;-9.26;60.62
72587;BME280;60621;49.576;11.024;2022-12-18T03:32:30;99715.13;;;-9.34;61.20
72587;BME280;60621;49.576;11.024;2022-12-18T03:33:51;99718.09;;;-9.31;60.75
72587;BME280;60621;49.576;11.024;2022-12-18T03:34:55;99720.41;;;-9.36;61.01
72587;BME280;60621;49.576;11.024;2022-12-18T03:36:00;99717.06;;;-9.43;61.44
72587;BME280;60621;49.576;11.024;2022-12-18T03:37:02;99715.28;;;-9.42;61.46
72587;BME280;60621;49.576;11.024;2022-12-18T03:38:04;99721.03;;;-9.34;61.04
72587;BME280;60621;49.576;11.024;2022-12-18T03:39:05;99718.91;;;-9.30;61.17
72587;BME280;60621;49.576;11.024;2022-12-18T03:40:07;99720.88;;;-9.25;60.68
72587;BME280;60621;49.576;11.024;2022-12-18T03:41:51;99722.47;;;-9.24;60.93
72587;BME280;60621;49.576;11.024;2022-12-18T03:43:08;99723.25;;;-9.17;60.85
72587;BME280;60621;49.576;11.024;2022-12-18T03:44:21;99724.25;;;-9.18;60.83
72587;BME280;60621;49.576;11.024;2022-12-18T03:45:32;99721.28;;;-9.22;60.96
72587;BME280;60621;49.576;11.024;2022-12-18T03:46:46;99726.78;;;-9.18;60.55
72587;BME280;60621;49.576;11.024;2022-12-18T03:49:27;99730.13;;;-9.18;61.37
72587;BME280;60621;49.576;11.024;2022-12-18T03:50:45;99728.22;;;-9.09;60.43
72587;BME280;60621;49.576;11.024;2022-12-18T03:51:53;99722.31;;;-9.10;60.30
72587;BME280;60621;49.576;11.024;2022-12-18T03:53:10;99729.78;;;-9.08;60.21
72587;BME280;60621;49.576;11.024;2022-12-18T03:54:16;99725.28;;;-9.06;59.73
72587;BME280;60621;49.576;11.024;2022-12-18T03:55:19;99724.66;;;-9.08;59.86
72587;BME280;60621;49.576;11.024;2022-12-18T03:56:24;99730.41;;;-9.06;60.62
72587;BME280;60621;49.576;11.024;2022-12-18T03:57:29;99730.19;;;-9.05;59.75
72587;BME280;60621;49.576;11.024;2022-12-18T03:58:33;99722.72;;;-9.06;59.87
72587;BME280;60621;49.576;11.024;2022-12-18T03:59:35;99733.75;;;-9.06;59.49
72587;BME280;60621;49.576;11.024;2022-12-18T04:00:39;99736.88;;;-9.10;59.68
72587;BME280;60621;49.576;11.024;2022-12-18T04:01:46;99734.25;;;-9.17;59.67
72587;BME280;60621;49.576;11.024;2022-12-18T04:02:51;99742.91;;;-9.18;59.83
72587;BME280;60621;49.576;11.024;2022-12-18T04:03:54;99737.03;;;-9.18;60.05
72587;BME280;60621;49.576;11.024;2022-12-18T04:05:00;99735.88;;;-9.16;59.52
72587;BME280;60621;49.576;11.024;2022-12-18T04:06:04;99739.78;;;-9.20;59.48
72587;BME280;60621;49.576;11.024;2022-12-18T04:07:07;99737.44;;;-9.15;59.81
72587;BME280;60621;49.576;11.024;2022-12-18T04:08:09;99734.66;;;-9.20;60.14
72587;BME280;60621;49.576;11.024;2022-12-18T04:09:10;99737.81;;;-9.18;59.62
72587;BME280;60621;49.576;11.024;2022-12-18T04:10:13;99737.22;;;-9.20;60.26
72587;BME280;60621;49.576;11.024;2022-12-18T04:11:16;99739.16;;;-9.22;60.53
72587;BME280;60621;49.576;11.024;2022-12-18T04:12:17;99735.25;;;-9.18;60.56
72587;BME280;60621;49.576;11.024;2022-12-18T04:13:23;99739.44;;;-9.10;60.80
72587;BME280;60621;49.576;11.024;2022-12-18T04:14:25;99727.84;;;-9.06;60.32
72587;BME280;60621;49.576;11.024;2022-12-18T04:15:26;99732.19;;;-9.00;60.87
72587;BME280;60621;49.576;11.024;2022-12-18T04:16:28;99742.03;;;-8.97;60.69
72587;BME280;60621;49.576;11.024;2022-12-18T04:17:30;99735.75;;;-8.88;59.80
72587;BME280;60621;49.576;11.024;2022-12-18T04:18:31;99734.78;;;-8.87;60.12
72587;BME280;60621;49.576;11.024;2022-12-18T04:19:33;99737.94;;;-8.85;60.37
72587;BME280;60621;49.576;11.024;2022-12-18T04:20:35;99744.44;;;-8.82;60.03
72587;BME280;60621;49.576;11.024;2022-12-18T04:21:36;99740.47;;;-8.85;61.07
72587;BME280;60621;49.576;11.024;2022-12-18T04:22:38;99744.66;;;-8.77;60.98
72587;BME280;60621;49.576;11.024;2022-12-18T04:23:39;99740.94;;;-8.68;61.16
72587;BME280;60621;49.576;11.024;2022-12-18T04:24:41;99737.75;;;-8.70;61.19
72587;BME280;60621;49.576;11.024;2022-12-18T04:25:43;99746.84;;;-8.67;61.32
72587;BME280;60621;49.576;11.024;2022-12-18T04:26:45;99738.16;;;-8.66;61.13
72587;BME280;60621;49.576;11.024;2022-12-18T04:27:46;99740.34;;;-8.63;61.15
72587;BME280;60621;49.576;11.024;2022-12-18T04:28:48;99744.06;;;-8.59;61.35
72587;BME280;60621;49.576;11.024;2022-12-18T04:29:49;99745.66;;;-8.58;61.44
72587;BME280;60621;49.576;11.024;2022-12-18T04:30:51;99742.50;;;-8.60;61.93
72587;BME280;60621;49.576;11.024;2022-12-18T04:31:52;99753.31;;;-8.65;62.21
72587;BME280;60621;49.576;11.024;2022-12-18T04:32:54;99756.88;;;-8.59;62.28
72587;BME280;60621;49.576;11.024;2022-12-18T04:33:55;99748.41;;;-8.60;62.03
72587;BME280;60621;49.576;11.024;2022-12-18T04:34:57;99753.53;;;-8.60;62.73
72587;BME280;60621;49.576;11.024;2022-12-18T04:35:59;99755.50;;;-8.55;62.56
72587;BME280;60621;49.576;11.024;2022-12-18T04:37:00;99754.75;;;-8.49;62.38
72587;BME280;60621;49.576;11.024;2022-12-18T04:38:02;99749.81;;;-8.37;62.02
72587;BME280;60621;49.576;11.024;2022-12-18T04:39:03;99747.28;;;-8.44;61.95
72587;BME280;60621;49.576;11.024;2022-12-18T04:40:05;99755.94;;;-8.38;61.86
72587;BME280;60621;49.576;11.024;2022-12-18T04:41:07;99754.31;;;-8.33;62.44
72587;BME280;60621;49.576;11.024;2022-12-18T04:42:09;99744.88;;;-8.32;61.83
72587;BME280;60621;49.576;11.024;2022-12-18T04:43:10;99750.97;;;-8.33;62.68
72587;BME280;60621;49.576;11.024;2022-12-18T04:44:12;99759.28;;;-8.25;62.75
72587;BME280;60621;49.576;11.024;2022-12-18T04:45:14;99747.25;;;-8.24;62.44
72587;BME280;60621;49.576;11.024;2022-12-18T04:46:15;99749.22;;;-8.19;62.54
72587;BME280;60621;49.576;11.024;2022-12-18T04:47:17;99742.91;;;-8.17;62.23
72587;BME280;60621;49.576;11.024;2022-12-18T04:48:19;99750.59;;;-8.10;62.49
72587;BME280;60621;49.576;11.024;2022-12-18T04:49:21;99742.72;;;-8.09;62.42
72587;BME280;60621;49.576;11.024;2022-12-18T04:50:23;99745.69;;;-8.05;62.39
72587;BME280;60621;49.576;11.024;2022-12-18T04:51:25;99744.28;;;-8.08;62.98
72587;BME280;60621;49.576;11.024;2022-12-18T04:52:27;99736.22;;;-8.05;63.70
72587;BME280;60621;49.576;11.024;2022-12-18T04:53:28;99736.22;;;-7.98;63.43
72587;BME280;60621;49.576;11.024;2022-12-18T04:54:30;99731.09;;;-7.91;63.12
72587;BME280;60621;49.576;11.024;2022-12-18T04:55:31;99724.38;;;-7.86;63.05
72587;BME280;60621;49.576;11.024;2022-12-18T04:56:33;99729.69;;;-7.81;62.73
72587;BME280;60621;49.576;11.024;2022-12-18T04:57:35;99735.03;;;-7.82;62.92
72587;BME280;60621;49.576;11.024;2022-12-18T04:58:37;99732.88;;;-7.92;64.04
72587;BME280;60621;49.576;11.024;2022-12-18T04:59:39;99729.31;;;-7.97;63.55
72587;BME280;60621;49.576;11.024;2022-12-18T05:00:41;99734.63;;;-7.99;63.96
72587;BME280;60621;49.576;11.024;2022-12-18T05:01:42;99739.56;;;-7.91;64.13
72587;BME280;60621;49.576;11.024;2022-12-18T05:02:45;99742.69;;;-7.89;64.33
72587;BME280;60621;49.576;11.024;2022-12-18T05:03:47;99748.00;;;-7.84;64.18
72587;BME280;60621;49.576;11.024;2022-12-18T05:04:48;99746.06;;;-7.82;64.23
72587;BME280;60621;49.576;11.024;2022-12-18T05:05:50;99745.66;;;-7.72;63.95
72587;BME280;60621;49.576;11.024;2022-12-18T05:06:52;99741.88;;;-7.69;64.22
72587;BME280;60621;49.576;11.024;2022-12-18T05:07:54;99745.06;;;-7.67;64.34
72587;BME280;60621;49.576;11.024;2022-12-18T05:08:55;99736.16;;;-7.65;63.97
72587;BME280;60621;49.576;11.024;2022-12-18T05:09:56;99735.38;;;-7.65;64.69
72587;BME280;60621;49.576;11.024;2022-12-18T05:11:00;99733.59;;;-7.58;64.21
72587;BME280;60621;49.576;11.024;2022-12-18T05:12:02;99731.66;;;-7.63;64.27
72587;BME280;60621;49.576;11.024;2022-12-18T05:13:03;99731.03;;;-7.58;64.75
72587;BME280;60621;49.576;11.024;2022-12-18T05:14:05;99728.44;;;-7.52;65.48
72587;BME280;60621;49.576;11.024;2022-12-18T05:15:06;99730.03;;;-7.44;65.34
72587;BME280;60621;49.576;11.024;2022-12-18T05:16:08;99734.16;;;-7.43;65.25
72587;BME280;60621;49.576;11.024;2022-12-18T05:17:10;99739.66;;;-7.39;65.52
72587;BME280;60621;49.576;11.024;2022-12-18T05:18:11;99740.44;;;-7.45;66.38
72587;BME280;60621;49.576;11.024;2022-12-18T05:19:13;99741.44;;;-7.40;65.77
72587;BME280;60621;49.576;11.024;2022-12-18T05:20:14;99740.25;;;-7.37;65.83
72587;BME280;60621;49.576;11.024;2022-12-18T05:21:16;99734.13;;;-7.30;66.26
72587;BME280;60621;49.576;11.024;2022-12-18T05:22:18;99740.41;;;-7.26;66.35
72587;BME280;60621;49.576;11.024;2022-12-18T05:23:21;99744.13;;;-7.22;66.42
72587;BME280;60621;49.576;11.024;2022-12-18T05:24:22;99753.59;;;-7.15;66.61
72587;BME280;60621;49.576;11.024;2022-12-18T05:25:24;99751.41;;;-7.12;65.97
72587;BME280;60621;49.576;11.024;2022-12-18T05:26:26;99752.00;;;-7.10;66.06
72587;BME280;60621;49.576;11.024;2022-12-18T05:27:27;99752.97;;;-7.11;66.08
72587;BME280;60621;49.576;11.024;2022-12-18T05:28:30;99754.78;;;-7.11;66.18
72587;BME280;60621;49.576;11.024;2022-12-18T05:29:32;99748.44;;;-7.09;66.41
72587;BME280;60621;49.576;11.024;2022-12-18T05:30:33;99753.78;;;-7.10;66.34
72587;BME280;60621;49.576;11.024;2022-12-18T05:31:35;99754.16;;;-7.07;66.36
72587;BME280;60621;49.576;11.024;2022-12-18T05:32:40;99755.50;;;-7.04;66.17
72587;BME280;60621;49.576;11.024;2022-12-18T05:33:42;99750.97;;;-7.02;66.30
72587;BME280;60621;49.576;11.024;2022-12-18T05:34:44;99750.38;;;-6.98;66.38
72587;BME280;60621;49.576;11.024;2022-12-18T05:36:00;99750.56;;;-6.99;65.88
72587;BME280;60621;49.576;11.024;2022-12-18T05:37:01;99756.06;;;-6.96;65.83
72587;BME280;60621;49.576;11.024;2022-12-18T05:38:03;99752.91;;;-6.91;65.89
72587;BME280;60621;49.576;11.024;2022-12-18T05:39:04;99739.25;;;-6.85;66.06
72587;BME280;60621;49.576;11.024;2022-12-18T05:40:06;99740.63;;;-6.89;65.61
72587;BME280;60621;49.576;11.024;2022-12-18T05:41:09;99750.28;;;-6.84;65.70
72587;BME280;60621;49.576;11.024;2022-12-18T05:42:11;99744.19;;;-6.83;65.33
72587;BME280;60621;49.576;11.024;2022-12-18T05:43:12;99753.63;;;-6.77;65.36
72587;BME280;60621;49.576;11.024;2022-12-18T05:44:21;99748.50;;;-6.77;65.55
72587;BME280;60621;49.576;11.024;2022-12-18T05:45:22;99754.00;;;-6.74;65.71
72587;BME280;60621;49.576;11.024;2022-12-18T05:46:24;99751.59;;;-6.68;65.06
72587;BME280;60621;49.576;11.024;2022-12-18T05:47:27;99759.09;;;-6.67;65.69
72587;BME280;60621;49.576;11.024;2022-12-18T05:48:28;99760.66;;;-6.66;65.56
72587;BME280;60621;49.576;11.024;2022-12-18T05:49:30;99766.19;;;-6.62;65.00
72587;BME280;60621;49.576;11.024;2022-12-18T05:50:34;99753.91;;;-6.60;65.49
72587;BME280;60621;49.576;11.024;2022-12-18T05:51:36;99758.31;;;-6.74;65.59